Time;durP1;ratioP1;P1;durP2;ratioP2;P2;SDS_P1;SDS_P2;PMS_P1;PMS_P2;Temp;Humidity;BMP_temperature;BMP_pressure;BME280_temperature;BME280_humidity;BME280_pressure;Samples;Min_cycle;Max_cycle;Signal;HPM_P1;HPM_P2
2021/12/17 00:04:37;;;;;;;;;50.00;42.25;;;;;;;;5098776;27;45510;-50
2021/12/17 00:07:07;;;;;;;;;45.00;37.25;;;;;;;;5098386;27;45388;-49
2021/12/17 00:09:32;;;;;;;;;47.00;39.50;;;;;;;;5098374;27;45203;-53
2021/12/17 00:11:58;;;;;;;;;42.25;38.25;;;;;;;;5098846;27;45361;-51
2021/12/17 00:14:28;;;;;;;;;50.25;39.00;;;;;;;;5098850;27;45392;-48
2021/12/17 00:16:54;;;;;;;;;50.75;42.00;;;;;;;;5098048;27;45257;-45
2021/12/17 00:44:15;;;;;;;;;51.25;42.50;;;;;;;;5078120;27;45276;-49
2021/12/17 00:49:26;;;;;;;;;44.50;39.75;;;;;;;;5097992;27;45264;-48
2021/12/17 00:51:56;;;;;;;;;44.25;40.75;;;;;;;;5097563;27;46438;-48
2021/12/17 00:54:31;;;;;;;;;50.50;42.75;;;;;;;;5097882;27;45353;-50
2021/12/17 00:56:57;;;;;;;;;56.75;45.00;;;;;;;;5098193;27;45325;-50
2021/12/17 00:59:22;;;;;;;;;53.50;45.00;;;;;;;;5097936;27;45530;-50
2021/12/17 01:01:49;;;;;;;;;52.75;42.75;;;;;;;;5097560;27;45348;-47
2021/12/17 01:04:14;;;;;;;;;46.25;39.75;;;;;;;;5098215;27;45358;-47
2021/12/17 01:06:39;;;;;;;;;50.25;43.25;;;;;;;;5098370;27;45260;-50
2021/12/17 01:09:06;;;;;;;;;44.25;37.50;;;;;;;;5097899;27;45303;-49
2021/12/17 01:11:32;;;;;;;;;49.50;42.50;;;;;;;;5097613;27;45422;-48
2021/12/17 01:13:57;;;;;;;;;49.25;40.00;;;;;;;;5097327;27;45212;-50
2021/12/17 01:16:23;;;;;;;;;52.50;42.25;;;;;;;;5098158;27;45211;-49
2021/12/17 01:19:00;;;;;;;;;47.00;40.25;;;;;;;;5097818;27;45213;-51
2021/12/17 01:24:11;;;;;;;;;47.75;38.75;;;;;;;;5076871;28;45352;-48
2021/12/17 01:43:07;;;;;;;;;50.00;42.50;;;;;;;;5076947;28;45500;-50
2021/12/17 01:45:37;;;;;;;;;50.25;40.50;;;;;;;;5076212;27;45313;-50
2021/12/17 01:48:06;;;;;;;;;51.50;44.50;;;;;;;;5082215;27;45508;-49
2021/12/17 01:56:16;;;;;;;;;46.75;40.25;;;;;;;;5096700;27;45297;-49
2021/12/17 02:01:27;;;;;;;;;51.50;40.50;;;;;;;;5076836;28;45164;-51
2021/12/17 02:03:52;;;;;;;;;45.50;40.75;;;;;;;;5075405;28;46039;-50
2021/12/17 02:06:18;;;;;;;;;54.25;43.75;;;;;;;;5076588;27;45341;-48
2021/12/17 02:08:46;;;;;;;;;46.50;40.50;;;;;;;;5076387;27;45275;-48
2021/12/17 02:19:44;;;;;;;;;48.75;40.25;;;;;;;;5096520;27;45187;-50
2021/12/17 02:32:48;;;;;;;;;47.00;39.50;;;;;;;;5096786;27;45178;-52
2021/12/17 02:37:44;;;;;;;;;53.00;44.25;;;;;;;;5096698;27;45479;-52
2021/12/17 02:45:32;;;;;;;;;46.25;40.50;;;;;;;;5100341;27;45336;-51
2021/12/17 02:48:00;;;;;;;;;49.50;40.50;;;;;;;;5099026;27;46310;-52
2021/12/17 02:50:25;;;;;;;;;48.25;41.25;;;;;;;;5100048;27;45352;-48
2021/12/17 02:52:53;;;;;;;;;45.75;38.25;;;;;;;;5099289;27;45455;-48
2021/12/17 02:55:19;;;;;;;;;47.25;40.00;;;;;;;;5099956;27;45514;-52
2021/12/17 02:57:44;;;;;;;;;47.50;40.00;;;;;;;;5099746;27;45419;-51
2021/12/17 03:00:10;;;;;;;;;52.75;41.75;;;;;;;;5099953;27;45208;-49
2021/12/17 03:02:37;;;;;;;;;53.00;43.00;;;;;;;;5099792;27;45611;-46
2021/12/17 03:05:03;;;;;;;;;47.75;40.00;;;;;;;;5099974;27;45612;-48
2021/12/17 03:07:28;;;;;;;;;47.25;42.00;;;;;;;;5099949;27;45254;-50
2021/12/17 03:10:08;;;;;;;;;48.75;39.00;;;;;;;;5100062;27;45189;-49
2021/12/17 03:12:52;;;;;;;;;45.00;40.00;;;;;;;;5099240;27;45285;-51
2021/12/17 03:15:45;;;;;;;;;45.50;39.75;;;;;;;;5099552;27;46299;-49
2021/12/17 03:23:40;;;;;;;;;44.00;40.00;;;;;;;;5099525;27;45295;-49
2021/12/17 03:26:06;;;;;;;;;39.75;37.25;;;;;;;;5098632;27;46131;-49
2021/12/17 03:28:32;;;;;;;;;49.25;40.00;;;;;;;;5096067;27;45300;-51
2021/12/17 03:30:58;;;;;;;;;46.25;40.50;;;;;;;;5095057;27;45499;-47
2021/12/17 03:33:23;;;;;;;;;47.25;40.00;;;;;;;;5099415;27;45358;-46
2021/12/17 03:35:49;;;;;;;;;46.00;40.75;;;;;;;;5098722;27;45436;-50
2021/12/17 03:38:14;;;;;;;;;46.50;40.75;;;;;;;;5099506;27;45355;-48
2021/12/17 03:40:42;;;;;;;;;42.75;39.25;;;;;;;;5099339;27;45449;-48
2021/12/17 03:43:12;;;;;;;;;42.25;39.50;;;;;;;;5099430;27;45365;-51
2021/12/17 03:45:38;;;;;;;;;52.25;42.00;;;;;;;;5098682;27;46990;-51
2021/12/17 03:48:04;;;;;;;;;50.00;41.50;;;;;;;;5099043;27;45391;-50
2021/12/17 03:50:33;;;;;;;;;47.00;42.00;;;;;;;;5099294;27;45316;-50
2021/12/17 03:52:58;;;;;;;;;44.00;39.00;;;;;;;;5098043;27;45630;-52
2021/12/17 03:55:23;;;;;;;;;48.25;39.50;;;;;;;;5097891;27;45547;-51
2021/12/17 03:57:48;;;;;;;;;52.50;39.50;;;;;;;;5098289;27;45222;-48
2021/12/17 04:00:14;;;;;;;;;43.00;39.25;;;;;;;;5099359;27;45222;-51
2021/12/17 04:02:39;;;;;;;;;39.00;37.50;;;;;;;;5099078;27;45582;-48
2021/12/17 04:05:04;;;;;;;;;42.25;38.25;;;;;;;;5099019;27;46155;-48
2021/12/17 04:07:30;;;;;;;;;49.75;42.00;;;;;;;;5098715;27;45258;-50
2021/12/17 04:09:55;;;;;;;;;50.25;40.50;;;;;;;;5098347;27;45488;-49
2021/12/17 04:12:27;;;;;;;;;43.00;37.50;;;;;;;;5098988;27;45409;-52
2021/12/17 04:14:52;;;;;;;;;38.00;35.75;;;;;;;;5098514;27;45421;-51
2021/12/17 04:17:23;;;;;;;;;44.00;40.25;;;;;;;;5098796;27;45219;-49
2021/12/17 04:19:49;;;;;;;;;45.25;40.50;;;;;;;;5098584;27;45305;-52
2021/12/17 04:22:14;;;;;;;;;44.00;40.00;;;;;;;;5098389;27;45281;-51
2021/12/17 04:24:39;;;;;;;;;43.25;38.25;;;;;;;;5098541;27;46101;-53
2021/12/17 04:27:06;;;;;;;;;46.50;38.50;;;;;;;;5098695;27;45334;-46
2021/12/17 04:29:32;;;;;;;;;50.00;42.00;;;;;;;;5097320;27;45429;-49
2021/12/17 04:31:57;;;;;;;;;45.75;38.25;;;;;;;;5098112;27;45506;-48
2021/12/17 04:34:23;;;;;;;;;43.50;38.00;;;;;;;;5098270;27;45225;-51
2021/12/17 04:36:51;;;;;;;;;42.25;37.00;;;;;;;;5098146;27;45381;-51
2021/12/17 04:39:18;;;;;;;;;52.75;42.75;;;;;;;;5098333;27;45373;-49
2021/12/17 04:57:34;;;;;;;;;41.25;38.75;;;;;;;;5097949;27;45385;-51
2021/12/17 05:00:04;;;;;;;;;45.25;40.00;;;;;;;;5077624;27;45497;-46
2021/12/17 05:02:31;;;;;;;;;39.25;35.50;;;;;;;;5077428;27;45522;-48
2021/12/17 05:04:57;;;;;;;;;48.00;39.50;;;;;;;;5078352;27;47338;-51
2021/12/17 05:07:24;;;;;;;;;43.50;39.00;;;;;;;;5097885;27;45314;-46
2021/12/17 05:11:14;;;;;;;;;45.25;39.75;;;;;;;;5096740;27;45463;-52
2021/12/17 05:18:24;;;;;;;;;39.00;33.75;;;;;;;;5096761;27;45627;-47
2021/12/17 05:20:53;;;;;;;;;46.00;38.75;;;;;;;;5097792;27;45426;-49
2021/12/17 05:23:22;;;;;;;;;42.75;39.75;;;;;;;;5097532;27;45430;-54
2021/12/17 05:25:48;;;;;;;;;46.50;39.25;;;;;;;;5097055;27;46265;-50
2021/12/17 05:28:13;;;;;;;;;45.25;38.50;;;;;;;;5097929;27;45338;-48
2021/12/17 05:30:45;;;;;;;;;42.25;37.75;;;;;;;;5097793;27;45354;-51
2021/12/17 05:33:10;;;;;;;;;37.75;33.50;;;;;;;;5093506;27;45473;-61
2021/12/17 05:35:35;;;;;;;;;39.50;36.75;;;;;;;;5096761;27;46293;-50
2021/12/17 05:38:00;;;;;;;;;43.50;37.00;;;;;;;;5096070;27;45596;-55
2021/12/17 05:40:26;;;;;;;;;42.25;38.75;;;;;;;;5097523;27;45415;-53
2021/12/17 05:42:55;;;;;;;;;38.75;35.75;;;;;;;;5097615;27;45338;-49
2021/12/17 05:48:20;;;;;;;;;43.00;39.50;;;;;;;;5060617;27;45638;-51
2021/12/17 05:50:46;;;;;;;;;41.25;35.25;;;;;;;;5097137;27;45376;-52
2021/12/17 05:53:11;;;;;;;;;40.25;36.75;;;;;;;;5097264;27;46295;-50
2021/12/17 05:55:37;;;;;;;;;37.50;35.50;;;;;;;;5097045;27;46204;-50
2021/12/17 05:58:03;;;;;;;;;44.00;37.75;;;;;;;;5096638;27;45326;-49
2021/12/17 06:00:30;;;;;;;;;36.75;35.00;;;;;;;;5097157;27;45326;-56
2021/12/17 06:02:55;;;;;;;;;36.75;35.75;;;;;;;;5096570;27;45674;-53
2021/12/17 06:05:21;;;;;;;;;44.25;38.75;;;;;;;;5097075;27;46205;-53
2021/12/17 06:07:46;;;;;;;;;44.00;38.00;;;;;;;;5096320;27;45468;-51
2021/12/17 06:10:11;;;;;;;;;35.00;32.00;;;;;;;;5096159;27;45195;-53
2021/12/17 06:12:37;;;;;;;;;36.25;33.50;;;;;;;;5095678;27;45526;-54
2021/12/17 06:15:04;;;;;;;;;34.00;33.00;;;;;;;;5096824;27;45359;-57
2021/12/17 06:17:29;;;;;;;;;32.50;31.50;;;;;;;;5096186;27;45212;-52
2021/12/17 06:19:54;;;;;;;;;30.25;28.25;;;;;;;;5096481;27;45224;-56
2021/12/17 06:22:20;;;;;;;;;39.75;35.75;;;;;;;;5097078;27;45128;-58
2021/12/17 06:24:45;;;;;;;;;33.50;29.25;;;;;;;;5096922;27;46337;-54
2021/12/17 06:27:11;;;;;;;;;35.75;33.00;;;;;;;;5096745;27;45370;-56
2021/12/17 06:29:37;;;;;;;;;35.25;33.50;;;;;;;;5096994;27;45385;-51
2021/12/17 06:32:03;;;;;;;;;38.00;35.75;;;;;;;;5096299;27;45516;-55
2021/12/17 06:34:28;;;;;;;;;38.75;36.00;;;;;;;;5096454;27;46220;-52
2021/12/17 06:36:53;;;;;;;;;30.50;29.50;;;;;;;;5096772;27;45293;-57
2021/12/17 06:39:18;;;;;;;;;29.25;27.75;;;;;;;;5096890;27;45418;-56
2021/12/17 06:41:43;;;;;;;;;27.00;26.00;;;;;;;;5096288;27;45416;-52
2021/12/17 06:44:11;;;;;;;;;33.75;31.00;;;;;;;;5096664;27;45613;-56
2021/12/17 06:46:54;;;;;;;;;27.25;27.25;;;;;;;;5096750;27;45458;-56
2021/12/17 07:18:56;;;;;;;;;28.75;27.25;;;;;;;;5096251;27;45285;-57
2021/12/17 07:34:15;;;;;;;;;33.50;31.00;;;;;;;;5099686;27;45231;-53
2021/12/17 07:36:44;;;;;;;;;37.25;28.25;;;;;;;;5099011;27;45218;-54
2021/12/17 07:39:10;;;;;;;;;33.00;30.00;;;;;;;;5099453;27;45431;-55
2021/12/17 07:41:35;;;;;;;;;27.25;26.50;;;;;;;;5099608;27;45498;-56
2021/12/17 07:44:01;;;;;;;;;33.00;30.50;;;;;;;;5099385;27;45499;-55
2021/12/17 07:46:27;;;;;;;;;32.00;27.75;;;;;;;;5099399;27;45589;-54
2021/12/17 07:48:53;;;;;;;;;31.50;28.25;;;;;;;;5098693;27;45448;-53
2021/12/17 07:51:20;;;;;;;;;30.50;30.50;;;;;;;;5099478;27;45358;-54
2021/12/17 07:53:45;;;;;;;;;36.00;33.75;;;;;;;;5099286;27;45555;-52
2021/12/17 07:56:14;;;;;;;;;29.75;27.50;;;;;;;;5099081;27;45316;-55
2021/12/17 07:58:40;;;;;;;;;32.25;30.50;;;;;;;;5098599;27;45376;-54
2021/12/17 08:01:05;;;;;;;;;29.25;27.00;;;;;;;;5099218;27;45229;-58
2021/12/17 08:03:31;;;;;;;;;32.25;28.50;;;;;;;;5099373;27;45583;-55
2021/12/17 08:05:56;;;;;;;;;37.75;32.75;;;;;;;;5099113;27;46553;-58
2021/12/17 08:08:22;;;;;;;;;31.00;29.00;;;;;;;;5097668;27;45302;-58
2021/12/17 08:10:47;;;;;;;;;32.50;26.25;;;;;;;;5098216;27;45293;-56
2021/12/17 08:13:19;;;;;;;;;31.50;28.75;;;;;;;;5099123;27;45246;-55
2021/12/17 08:16:33;;;;;;;;;43.75;37.75;;;;;;;;5099081;27;47198;-55
2021/12/17 08:27:23;;;;;;;;;31.00;29.25;;;;;;;;5098405;27;45391;-55
2021/12/17 08:29:27;;;;;;;;;38.25;33.25;;;;;;;;5090979;27;45523;-56
2021/12/17 08:31:53;;;;;;;;;32.75;28.25;;;;;;;;5096560;27;45327;-53
2021/12/17 08:34:18;;;;;;;;;30.50;28.50;;;;;;;;5098420;27;45484;-55
2021/12/17 08:36:43;;;;;;;;;26.25;26.25;;;;;;;;5098347;27;45548;-56
2021/12/17 08:39:09;;;;;;;;;31.75;28.50;;;;;;;;5098527;27;45331;-55
2021/12/17 08:41:34;;;;;;;;;31.00;29.50;;;;;;;;5098172;27;45892;-57
2021/12/17 08:43:59;;;;;;;;;29.00;27.50;;;;;;;;5098172;27;45520;-57
2021/12/17 08:46:25;;;;;;;;;32.00;30.25;;;;;;;;5096945;27;46995;-55
2021/12/17 08:48:50;;;;;;;;;27.50;26.75;;;;;;;;5098334;27;45296;-55
2021/12/17 08:51:15;;;;;;;;;33.00;30.50;;;;;;;;5098467;27;45294;-53
2021/12/17 08:53:40;;;;;;;;;37.25;33.75;;;;;;;;5097853;27;45539;-54
2021/12/17 08:56:06;;;;;;;;;32.50;30.00;;;;;;;;5098019;27;46298;-57
2021/12/17 08:58:32;;;;;;;;;32.00;31.25;;;;;;;;5098187;27;45449;-53
2021/12/17 09:00:57;;;;;;;;;29.00;28.25;;;;;;;;5097968;27;45483;-54
2021/12/17 09:03:23;;;;;;;;;32.75;28.50;;;;;;;;5098115;27;45538;-53
2021/12/17 09:05:48;;;;;;;;;31.50;31.25;;;;;;;;5097267;27;45429;-55
2021/12/17 09:08:13;;;;;;;;;34.00;31.00;;;;;;;;5098028;27;45318;-58
2021/12/17 09:10:40;;;;;;;;;37.00;33.50;;;;;;;;5097778;27;45955;-57
2021/12/17 09:13:06;;;;;;;;;38.00;31.00;;;;;;;;5097870;27;45306;-55
2021/12/17 09:15:31;;;;;;;;;34.00;34.00;;;;;;;;5097258;27;47473;-53
2021/12/17 09:17:56;;;;;;;;;31.75;30.50;;;;;;;;5097463;27;45359;-55
2021/12/17 09:20:22;;;;;;;;;35.00;33.25;;;;;;;;5097954;27;45249;-55
2021/12/17 09:22:47;;;;;;;;;31.50;30.00;;;;;;;;5097585;27;45478;-55
2021/12/17 09:25:14;;;;;;;;;27.75;27.75;;;;;;;;5096062;27;45350;-58
2021/12/17 09:27:39;;;;;;;;;31.50;27.50;;;;;;;;5097032;27;45223;-52
2021/12/17 09:30:06;;;;;;;;;32.25;30.75;;;;;;;;5097752;27;45338;-56
2021/12/17 09:32:31;;;;;;;;;41.00;37.00;;;;;;;;5096367;27;45531;-57
2021/12/17 09:34:57;;;;;;;;;41.75;34.25;;;;;;;;5097276;27;45221;-55
2021/12/17 09:37:22;;;;;;;;;27.50;25.25;;;;;;;;5097218;27;45455;-56
2021/12/17 09:39:48;;;;;;;;;36.75;34.75;;;;;;;;5097235;27;45473;-57
2021/12/17 09:42:14;;;;;;;;;30.50;28.25;;;;;;;;5097637;27;45385;-58
2021/12/17 09:44:41;;;;;;;;;34.25;32.00;;;;;;;;5097347;27;45408;-55
2021/12/17 09:47:06;;;;;;;;;31.25;29.00;;;;;;;;5097568;27;45340;-54
2021/12/17 09:49:31;;;;;;;;;39.00;35.25;;;;;;;;5096867;27;45435;-56
2021/12/17 09:51:59;;;;;;;;;36.00;35.50;;;;;;;;5096950;27;45227;-54
2021/12/17 09:54:24;;;;;;;;;44.50;36.00;;;;;;;;5097075;27;46220;-54
2021/12/17 09:56:49;;;;;;;;;35.00;33.25;;;;;;;;5097350;27;45227;-58
2021/12/17 09:59:15;;;;;;;;;40.00;36.75;;;;;;;;5097392;27;45354;-53
2021/12/17 10:01:42;;;;;;;;;36.50;34.00;;;;;;;;5096748;27;45308;-53
2021/12/17 10:04:39;;;;;;;;;37.00;33.75;;;;;;;;5097277;27;46144;-55
2021/12/17 10:07:18;;;;;;;;;38.25;34.75;;;;;;;;5051361;27;45459;-57
2021/12/17 10:09:51;;;;;;;;;39.00;34.75;;;;;;;;5096691;27;45241;-53
2021/12/17 10:12:21;;;;;;;;;37.75;33.25;;;;;;;;5096231;27;45631;-57
2021/12/17 10:15:07;;;;;;;;;35.75;33.75;;;;;;;;5096810;27;46516;-56
2021/12/17 10:17:33;;;;;;;;;38.50;35.00;;;;;;;;5096477;27;45301;-63
2021/12/17 10:19:58;;;;;;;;;40.00;34.50;;;;;;;;5096816;27;45333;-60
2021/12/17 10:22:25;;;;;;;;;47.50;38.50;;;;;;;;5096603;27;45327;-58
2021/12/17 10:25:07;;;;;;;;;41.75;35.75;;;;;;;;5096548;27;45947;-53
2021/12/17 10:27:34;;;;;;;;;37.50;36.00;;;;;;;;5096776;27;45260;-56
2021/12/17 10:30:07;;;;;;;;;39.00;36.25;;;;;;;;5096747;27;45349;-52
2021/12/17 10:32:32;;;;;;;;;46.00;37.50;;;;;;;;5096262;27;45441;-55
2021/12/17 10:35:01;;;;;;;;;43.50;37.25;;;;;;;;5096185;27;46203;-54
2021/12/17 10:37:31;;;;;;;;;34.00;30.25;;;;;;;;5096909;27;45387;-55
2021/12/17 10:39:56;;;;;;;;;44.75;39.50;;;;;;;;5096625;27;45345;-56
2021/12/17 10:42:28;;;;;;;;;40.00;37.75;;;;;;;;5096837;27;45321;-54
2021/12/17 10:45:03;;;;;;;;;39.75;36.00;;;;;;;;5096090;27;45494;-53
2021/12/17 10:47:34;;;;;;;;;45.50;37.75;;;;;;;;5096462;27;45307;-52
2021/12/17 10:50:02;;;;;;;;;45.75;38.75;;;;;;;;5096557;27;45302;-55
2021/12/17 10:52:41;;;;;;;;;44.00;38.75;;;;;;;;5096487;27;45379;-55
2021/12/17 10:55:13;;;;;;;;;34.00;32.25;;;;;;;;5095676;27;45379;-53
2021/12/17 10:57:38;;;;;;;;;45.00;38.25;;;;;;;;5096330;27;45458;-55
2021/12/17 11:00:05;;;;;;;;;37.25;33.75;;;;;;;;5096316;27;45463;-52
2021/12/17 11:02:33;;;;;;;;;36.25;33.75;;;;;;;;5096548;27;45239;-55
2021/12/17 11:05:09;;;;;;;;;52.25;39.75;;;;;;;;5098758;27;45441;-54
2021/12/17 11:07:36;;;;;;;;;42.50;38.50;;;;;;;;5099264;27;45246;-55
2021/12/17 11:10:02;;;;;;;;;38.50;35.75;;;;;;;;5099557;27;45456;-53
2021/12/17 11:12:34;;;;;;;;;41.00;35.25;;;;;;;;5098405;27;45389;-58
2021/12/17 11:15:11;;;;;;;;;46.25;38.25;;;;;;;;5099644;27;46237;-53
2021/12/17 11:17:37;;;;;;;;;59.00;49.00;;;;;;;;5098704;27;45311;-56
2021/12/17 11:20:05;;;;;;;;;43.25;38.00;;;;;;;;5099196;27;45385;-56
2021/12/17 11:22:30;;;;;;;;;43.00;39.00;;;;;;;;5099499;27;45364;-54
2021/12/17 11:24:58;;;;;;;;;42.25;35.75;;;;;;;;5099215;27;45989;-57
2021/12/17 11:27:24;;;;;;;;;42.25;38.75;;;;;;;;5099011;27;45318;-56
2021/12/17 11:29:49;;;;;;;;;40.25;36.00;;;;;;;;5099072;27;45404;-56
2021/12/17 11:32:15;;;;;;;;;45.50;38.75;;;;;;;;5099555;27;45548;-59
2021/12/17 11:34:40;;;;;;;;;35.75;35.50;;;;;;;;5099223;27;45572;-54
2021/12/17 11:37:07;;;;;;;;;42.00;37.25;;;;;;;;5099505;27;45301;-53
2021/12/17 11:39:37;;;;;;;;;36.00;33.75;;;;;;;;5098893;27;45302;-56
2021/12/17 11:42:05;;;;;;;;;43.00;37.75;;;;;;;;5099442;27;45531;-53
2021/12/17 11:44:40;;;;;;;;;43.75;38.00;;;;;;;;5098872;27;46100;-54
2021/12/17 11:47:07;;;;;;;;;45.00;40.50;;;;;;;;5098548;27;45306;-52
2021/12/17 11:49:36;;;;;;;;;44.00;38.50;;;;;;;;5098543;27;45254;-57
2021/12/17 11:52:02;;;;;;;;;34.25;33.25;;;;;;;;5098792;27;45416;-54
2021/12/17 11:54:31;;;;;;;;;43.00;37.00;;;;;;;;5098005;27;45642;-53
2021/12/17 11:57:04;;;;;;;;;33.00;30.50;;;;;;;;5098850;27;45398;-57
2021/12/17 11:59:32;;;;;;;;;35.75;31.00;;;;;;;;5098816;27;45358;-57
2021/12/17 12:02:16;;;;;;;;;35.50;33.00;;;;;;;;5098222;27;45274;-52
2021/12/17 12:04:41;;;;;;;;;42.50;37.75;;;;;;;;5098751;27;46475;-57
2021/12/17 12:07:06;;;;;;;;;42.25;37.00;;;;;;;;5098710;27;45349;-53
2021/12/17 12:09:57;;;;;;;;;37.50;35.25;;;;;;;;5092810;27;45386;-56
2021/12/17 12:12:28;;;;;;;;;40.50;37.75;;;;;;;;5077404;27;45334;-53
2021/12/17 12:14:54;;;;;;;;;35.50;34.50;;;;;;;;5077986;27;45408;-59
2021/12/17 12:17:37;;;;;;;;;32.25;31.00;;;;;;;;5077659;27;45359;-57
2021/12/17 12:20:03;;;;;;;;;34.50;34.25;;;;;;;;5078075;27;45205;-59
2021/12/17 12:22:29;;;;;;;;;37.75;32.50;;;;;;;;5077849;27;45605;-57
2021/12/17 12:25:20;;;;;;;;;35.50;33.25;;;;;;;;5077518;27;46183;-54
2021/12/17 12:27:46;;;;;;;;;35.75;29.75;;;;;;;;5077664;27;45297;-57
2021/12/17 12:30:11;;;;;;;;;33.75;30.75;;;;;;;;5076683;28;45259;-54
2021/12/17 12:32:57;;;;;;;;;42.50;36.75;;;;;;;;5077928;27;45288;-59
2021/12/17 12:35:22;;;;;;;;;31.25;31.25;;;;;;;;5077042;28;46489;-56
2021/12/17 12:38:07;;;;;;;;;33.00;30.75;;;;;;;;5077626;27;45289;-56
2021/12/17 12:40:43;;;;;;;;;41.75;37.50;;;;;;;;5077983;27;45305;-55
2021/12/17 12:43:23;;;;;;;;;38.50;34.50;;;;;;;;5077681;27;45415;-57
2021/12/17 12:45:48;;;;;;;;;44.75;38.50;;;;;;;;5077043;27;46379;-54
2021/12/17 12:48:26;;;;;;;;;34.75;28.50;;;;;;;;5077653;27;45485;-55
2021/12/17 12:51:11;;;;;;;;;33.25;30.25;;;;;;;;5078012;27;45176;-57
2021/12/17 12:53:36;;;;;;;;;39.00;34.00;;;;;;;;5077650;27;45245;-58
2021/12/17 12:56:07;;;;;;;;;31.50;29.00;;;;;;;;5075597;28;47347;-54
2021/12/17 12:58:36;;;;;;;;;37.50;35.00;;;;;;;;5077604;27;45469;-58
2021/12/17 13:01:05;;;;;;;;;36.00;33.25;;;;;;;;5077489;27;45303;-54
2021/12/17 13:03:31;;;;;;;;;34.50;34.50;;;;;;;;5077657;27;45214;-53
2021/12/17 13:05:59;;;;;;;;;37.00;35.00;;;;;;;;5077439;27;45360;-58
2021/12/17 13:08:25;;;;;;;;;31.75;31.75;;;;;;;;5076726;27;45473;-58
2021/12/17 13:10:59;;;;;;;;;30.75;30.75;;;;;;;;5094010;27;45345;-58
2021/12/17 13:23:55;;;;;;;;;30.25;28.75;;;;;;;;5097648;27;45392;-53
2021/12/17 13:26:23;;;;;;;;;33.50;27.25;;;;;;;;5097460;27;46155;-53
2021/12/17 13:29:05;;;;;;;;;33.00;30.75;;;;;;;;5096011;27;45355;-57
2021/12/17 13:31:42;;;;;;;;;28.75;28.00;;;;;;;;5097543;27;45292;-56
2021/12/17 13:34:08;;;;;;;;;33.75;30.25;;;;;;;;5097608;27;45275;-57
2021/12/17 13:36:34;;;;;;;;;23.75;23.75;;;;;;;;5097177;27;46500;-54
2021/12/17 13:38:59;;;;;;;;;34.00;29.25;;;;;;;;5097332;27;45330;-55
2021/12/17 13:41:35;;;;;;;;;31.00;28.25;;;;;;;;5097058;27;45329;-55
2021/12/17 13:44:00;;;;;;;;;29.67;23.00;;;;;;;;5097541;27;45539;-56
2021/12/17 13:46:27;;;;;;;;;29.50;26.50;;;;;;;;5097149;27;46310;-57
2021/12/17 13:48:52;;;;;;;;;23.25;21.50;;;;;;;;5097442;27;45395;-58
2021/12/17 13:51:17;;;;;;;;;29.00;24.00;;;;;;;;5096651;27;45300;-56
2021/12/17 13:53:42;;;;;;;;;24.75;23.00;;;;;;;;5096942;27;45347;-53
2021/12/17 13:56:13;;;;;;;;;24.50;23.00;;;;;;;;5097097;27;46114;-58
2021/12/17 13:58:39;;;;;;;;;33.50;28.00;;;;;;;;5097013;27;45390;-55
2021/12/17 14:01:05;;;;;;;;;29.75;28.75;;;;;;;;5097064;27;45218;-52
2021/12/17 14:03:35;;;;;;;;;27.75;26.25;;;;;;;;5096257;27;45572;-53
2021/12/17 14:06:17;;;;;;;;;26.75;23.00;;;;;;;;5095123;27;45458;-56
2021/12/17 14:08:43;;;;;;;;;21.00;20.33;;;;;;;;5096862;27;45420;-57
2021/12/17 14:11:25;;;;;;;;;20.00;18.50;;;;;;;;5096331;27;45493;-53
2021/12/17 14:13:50;;;;;;;;;27.25;26.25;;;;;;;;5096328;27;45289;-52
2021/12/17 14:16:29;;;;;;;;;28.75;27.75;;;;;;;;5095207;27;46294;-56
2021/12/17 14:18:56;;;;;;;;;29.33;29.00;;;;;;;;5096988;27;45420;-52
2021/12/17 14:21:27;;;;;;;;;23.00;22.33;;;;;;;;5096782;27;45290;-55
2021/12/17 14:23:52;;;;;;;;;24.00;24.00;;;;;;;;5095976;27;45398;-57
2021/12/17 14:26:17;;;;;;;;;32.75;29.50;;;;;;;;5096405;27;45445;-56
2021/12/17 14:28:42;;;;;;;;;24.50;22.75;;;;;;;;5096716;27;45272;-54
2021/12/17 14:31:14;;;;;;;;;31.75;29.00;;;;;;;;5096650;27;45346;-56
2021/12/17 14:33:46;;;;;;;;;25.50;23.75;;;;;;;;5096319;27;45480;-57
2021/12/17 14:36:11;;;;;;;;;29.50;26.75;;;;;;;;5095896;27;45289;-54
2021/12/17 14:38:36;;;;;;;;;29.20;22.60;;;;;;;;5097115;27;45258;-55
2021/12/17 14:41:02;;;;;;;;;28.33;24.00;;;;;;;;5100217;27;45255;-58
2021/12/17 14:43:32;;;;;;;;;27.50;25.25;;;;;;;;5100292;27;45238;-52
2021/12/17 14:46:15;;;;;;;;;29.00;26.67;;;;;;;;5099611;27;45464;-54
2021/12/17 14:49:09;;;;;;;;;29.00;26.00;;;;;;;;5099815;27;45372;-56
2021/12/17 15:05:17;;;;;;;;;20.75;19.00;;;;;;;;5096840;27;45326;-57
2021/12/17 15:07:42;;;;;;;;;24.33;19.00;;;;;;;;5099110;27;47067;-55
2021/12/17 15:10:09;;;;;;;;;25.67;21.33;;;;;;;;5099404;27;45194;-58
2021/12/17 15:15:00;;;;;;;;;20.00;19.00;;;;;;;;5099908;27;45255;-57
2021/12/17 15:17:26;;;;;;;;;19.67;18.33;;;;;;;;5099671;27;46499;-58
2021/12/17 15:19:51;;;;;;;;;19.33;18.67;;;;;;;;5098970;27;45238;-53
2021/12/17 15:22:16;;;;;;;;;20.67;20.67;;;;;;;;5099537;27;45364;-56
2021/12/17 15:24:41;;;;;;;;;20.50;20.25;;;;;;;;5099619;27;45467;-58
2021/12/17 15:27:07;;;;;;;;;23.25;21.00;;;;;;;;5099247;27;46431;-52
2021/12/17 15:29:32;;;;;;;;;24.50;21.75;;;;;;;;5098929;27;45348;-55
2021/12/17 15:31:58;;;;;;;;;21.50;19.25;;;;;;;;5099114;27;45327;-52
2021/12/17 15:34:23;;;;;;;;;26.50;22.75;;;;;;;;5099292;27;45269;-55
2021/12/17 15:36:49;;;;;;;;;19.00;19.00;;;;;;;;5099132;27;46197;-53
2021/12/17 15:39:15;;;;;;;;;21.25;19.00;;;;;;;;5099241;27;45377;-55
2021/12/17 15:41:41;;;;;;;;;23.33;21.00;;;;;;;;5098256;27;45404;-54
2021/12/17 15:44:10;;;;;;;;;25.33;19.00;;;;;;;;5099399;27;45283;-52
2021/12/17 15:46:36;;;;;;;;;22.00;18.50;;;;;;;;5098554;27;46371;-55
2021/12/17 15:49:02;;;;;;;;;20.33;16.33;;;;;;;;5098701;27;45600;-53
2021/12/17 15:51:28;;;;;;;;;20.33;17.33;;;;;;;;5097598;27;45418;-55
2021/12/17 15:53:53;;;;;;;;;20.67;20.00;;;;;;;;5098403;27;45349;-55
2021/12/17 15:56:18;;;;;;;;;23.00;23.00;;;;;;;;5098727;27;46166;-56
2021/12/17 15:58:43;;;;;;;;;22.67;21.00;;;;;;;;5098868;27;45416;-57
2021/12/17 16:01:09;;;;;;;;;18.75;18.75;;;;;;;;5099021;27;45302;-58
2021/12/17 16:03:36;;;;;;;;;23.67;21.67;;;;;;;;5098290;27;45569;-53
2021/12/17 16:06:03;;;;;;;;;17.33;16.67;;;;;;;;5098775;27;46233;-58
2021/12/17 16:08:31;;;;;;;;;18.67;17.00;;;;;;;;5098677;27;45448;-56
2021/12/17 16:11:12;;;;;;;;;19.75;19.75;;;;;;;;5098202;27;45477;-55
2021/12/17 16:21:49;;;;;;;;;16.50;16.50;;;;;;;;5098681;27;45354;-56
2021/12/17 16:24:14;;;;;;;;;21.25;18.75;;;;;;;;5098630;27;45502;-51
2021/12/17 16:26:39;;;;;;;;;20.50;17.50;;;;;;;;5098005;27;46387;-54
2021/12/17 16:29:05;;;;;;;;;25.00;20.50;;;;;;;;5098478;27;45346;-54
2021/12/17 16:31:30;;;;;;;;;20.00;17.67;;;;;;;;5093973;27;45474;-49
2021/12/17 16:34:01;;;;;;;;;18.25;16.75;;;;;;;;5096912;27;45512;-54
2021/12/17 16:36:26;;;;;;;;;19.75;19.75;;;;;;;;5096823;27;46493;-54
2021/12/17 16:38:51;;;;;;;;;16.75;16.25;;;;;;;;5097226;27;45668;-56
2021/12/17 16:41:17;;;;;;;;;17.00;15.00;;;;;;;;5096699;27;45395;-55
2021/12/17 16:43:44;;;;;;;;;20.75;20.75;;;;;;;;5098201;27;45390;-53
2021/12/17 16:48:36;;;;;;;;;19.00;19.00;;;;;;;;5097689;27;45499;-53
2021/12/17 16:51:01;;;;;;;;;22.00;20.25;;;;;;;;5098186;27;45445;-54
2021/12/17 16:53:26;;;;;;;;;19.50;16.75;;;;;;;;5098368;27;45308;-51
2021/12/17 16:55:52;;;;;;;;;16.25;16.25;;;;;;;;5098213;27;45281;-57
2021/12/17 16:58:17;;;;;;;;;24.00;20.75;;;;;;;;5097619;27;45458;-54
2021/12/17 17:00:42;;;;;;;;;25.25;19.75;;;;;;;;5098309;27;45282;-54
2021/12/17 17:03:08;;;;;;;;;20.75;19.00;;;;;;;;5098133;27;45382;-56
2021/12/17 17:05:33;;;;;;;;;21.50;20.25;;;;;;;;5097862;27;46026;-57
2021/12/17 17:07:58;;;;;;;;;21.50;19.50;;;;;;;;5098055;27;45331;-57
2021/12/17 17:10:28;;;;;;;;;26.25;23.25;;;;;;;;5097392;27;45389;-57
2021/12/17 17:12:58;;;;;;;;;20.25;19.00;;;;;;;;5097956;27;45411;-53
2021/12/17 17:15:24;;;;;;;;;20.25;20.25;;;;;;;;5097783;27;45377;-55
2021/12/17 17:17:49;;;;;;;;;21.50;20.75;;;;;;;;5097674;27;45294;-52
2021/12/17 17:20:14;;;;;;;;;22.00;21.00;;;;;;;;5097368;27;45425;-55
2021/12/17 17:22:40;;;;;;;;;19.75;18.75;;;;;;;;5097732;27;45565;-57
2021/12/17 17:25:05;;;;;;;;;27.75;21.50;;;;;;;;5097465;27;46305;-49
2021/12/17 17:27:31;;;;;;;;;25.00;21.25;;;;;;;;5097675;27;45435;-54
2021/12/17 17:29:56;;;;;;;;;25.50;19.75;;;;;;;;5096126;27;45287;-57
2021/12/17 17:32:21;;;;;;;;;25.25;22.25;;;;;;;;5088562;27;45578;-57
2021/12/17 17:34:47;;;;;;;;;110.50;102.75;;;;;;;;5093689;27;45451;-57
2021/12/17 17:37:12;;;;;;;;;82.00;65.25;;;;;;;;5095451;27;45590;-55
2021/12/17 17:39:38;;;;;;;;;83.00;67.75;;;;;;;;5096234;27;45443;-49
2021/12/17 17:42:03;;;;;;;;;21.00;19.75;;;;;;;;5096601;27;45523;-56
2021/12/17 17:44:29;;;;;;;;;24.00;23.50;;;;;;;;5094518;27;48110;-50